createdAt,value
2018-01-05T00:01:43.423Z,1.50
2018-01-05T00:04:12.305Z,1.30
2018-01-05T00:06:41.162Z,1.92
2018-01-05T00:09:10.025Z,2.08
2018-01-05T00:11:38.891Z,1.30
2018-01-05T00:14:07.768Z,1.55
2018-01-05T00:16:36.659Z,1.55
2018-01-05T00:19:05.508Z,2.85
2018-01-05T00:21:34.408Z,1.90
2018-01-05T00:24:03.397Z,1.20
2018-01-05T00:26:32.338Z,1.65
2018-01-05T00:29:01.292Z,1.67
2018-01-05T00:31:30.223Z,1.40
2018-01-05T00:33:59.166Z,1.60
2018-01-05T00:36:28.106Z,1.55
2018-01-05T00:38:57.406Z,1.40
2018-01-05T00:41:26.380Z,1.40
2018-01-05T00:43:55.271Z,1.42
2018-01-05T00:46:24.140Z,1.92
2018-01-05T00:48:53.031Z,2.03
2018-01-05T00:51:21.904Z,1.58
2018-01-05T00:53:50.773Z,1.87
2018-01-05T00:56:19.638Z,1.90
2018-01-05T00:58:48.504Z,1.60
2018-01-05T01:01:17.364Z,1.55
2018-01-05T01:03:46.276Z,1.60
2018-01-05T01:06:15.144Z,1.77
2018-01-05T01:08:43.995Z,1.65
2018-01-05T01:11:12.867Z,1.62
2018-01-05T01:13:41.728Z,1.23
2018-01-05T01:16:10.590Z,1.60
2018-01-05T01:18:39.463Z,1.55
2018-01-05T01:21:08.321Z,1.50
2018-01-05T01:23:37.192Z,1.30
2018-01-05T01:26:06.048Z,1.90
2018-01-05T01:28:34.918Z,1.10
2018-01-05T01:31:03.788Z,1.40
2018-01-05T01:33:32.660Z,1.90
2018-01-05T01:36:01.520Z,1.65
2018-01-05T01:38:30.371Z,1.50
2018-01-05T01:40:59.312Z,1.60
2018-01-05T01:43:28.175Z,1.45
2018-01-05T01:45:57.153Z,1.90
2018-01-05T01:48:27.512Z,1.73
2018-01-05T01:50:56.433Z,1.67
2018-01-05T01:53:25.367Z,1.20
2018-01-05T01:55:54.241Z,1.55
2018-01-05T01:58:23.108Z,2.08
2018-01-05T02:00:51.985Z,1.40
2018-01-05T02:03:20.832Z,1.45
2018-01-05T02:05:49.742Z,1.48
2018-01-05T02:08:18.620Z,1.87
2018-01-05T02:10:47.480Z,1.50
2018-01-05T02:13:16.355Z,1.15
2018-01-05T02:15:45.214Z,1.85
2018-01-05T02:18:14.086Z,1.40
2018-01-05T02:20:42.951Z,1.27
2018-01-05T02:23:11.811Z,1.58
2018-01-05T02:25:40.673Z,1.73
2018-01-05T02:28:09.532Z,1.15
2018-01-05T02:30:38.404Z,1.33
2018-01-05T02:33:07.274Z,1.45
2018-01-05T02:35:36.137Z,1.50
2018-01-05T02:38:05.000Z,1.52
2018-01-05T02:40:33.878Z,1.45
2018-01-05T02:43:02.744Z,1.50
2018-01-05T02:45:31.607Z,1.87
2018-01-05T02:48:00.470Z,1.10
2018-01-05T02:50:29.319Z,1.50
2018-01-05T02:52:58.192Z,2.05
2018-01-05T02:55:27.104Z,1.80
2018-01-05T02:57:56.155Z,1.55
2018-01-05T03:00:25.171Z,1.35
2018-01-05T03:02:54.235Z,2.15
2018-01-05T03:05:23.903Z,1.50
2018-01-05T03:07:52.839Z,2.03
2018-01-05T03:10:22.435Z,1.60
2018-01-05T03:12:51.308Z,1.62
2018-01-05T03:15:20.163Z,1.08
2018-01-05T03:17:49.034Z,2.45
2018-01-05T03:20:17.888Z,1.50
2018-01-05T03:22:46.761Z,2.00
2018-01-05T03:25:15.615Z,2.37
2018-01-05T03:27:44.492Z,2.00
2018-01-05T03:30:13.364Z,1.40
2018-01-05T03:32:42.226Z,1.92
2018-01-05T03:35:11.091Z,1.40
2018-01-05T03:37:39.951Z,1.80
2018-01-05T03:40:08.832Z,1.30
2018-01-05T03:42:37.695Z,1.70
2018-01-05T03:45:06.568Z,2.20
2018-01-05T03:47:35.472Z,1.55
2018-01-05T03:50:04.345Z,2.15
2018-01-05T03:52:33.194Z,1.33
2018-01-05T03:55:02.137Z,1.60
2018-01-05T03:57:31.000Z,2.22
2018-01-05T03:59:59.882Z,1.87
2018-01-05T04:02:28.817Z,1.80
2018-01-05T04:04:57.767Z,2.03
2018-01-05T04:07:26.695Z,2.17
2018-01-05T04:09:55.714Z,2.62
2018-01-05T04:12:24.831Z,1.85
2018-01-05T04:14:53.835Z,1.23
2018-01-05T04:17:22.727Z,1.58
2018-01-05T04:19:51.585Z,1.65
2018-01-05T04:22:20.550Z,1.30
2018-01-05T04:24:49.476Z,1.80
2018-01-05T04:27:18.343Z,1.70
2018-01-05T04:29:47.203Z,2.15
2018-01-05T04:32:16.055Z,1.55
2018-01-05T04:34:44.926Z,1.92
2018-01-05T04:37:13.889Z,1.60
2018-01-05T04:39:42.759Z,1.80
2018-01-05T04:42:11.622Z,1.85
2018-01-05T04:44:40.497Z,2.97
2018-01-05T04:47:09.358Z,1.77
2018-01-05T04:49:38.224Z,1.65
2018-01-05T04:52:07.096Z,1.52
2018-01-05T04:54:35.963Z,1.20
2018-01-05T04:57:04.827Z,1.50
2018-01-05T04:59:33.709Z,1.83
2018-01-05T05:02:02.585Z,1.92
2018-01-05T05:04:31.447Z,1.60
2018-01-05T05:07:00.380Z,1.70
2018-01-05T05:09:29.353Z,1.65
2018-01-05T05:11:58.371Z,2.10
2018-01-05T05:14:27.339Z,2.12
2018-01-05T05:16:56.510Z,1.58
2018-01-05T05:19:25.515Z,1.70
2018-01-05T05:21:54.507Z,1.87
2018-01-05T05:24:23.376Z,1.95
2018-01-05T05:26:52.304Z,1.90
2018-01-05T05:29:21.179Z,1.42
2018-01-05T05:31:50.047Z,3.65
2018-01-05T05:34:18.903Z,1.55
2018-01-05T05:36:47.768Z,2.60
2018-01-05T05:39:16.621Z,1.52
2018-01-05T05:41:45.483Z,2.17
2018-01-05T05:44:14.364Z,1.55
2018-01-05T05:46:43.208Z,1.87
2018-01-05T05:49:12.076Z,1.85
2018-01-05T05:51:40.923Z,1.58
2018-01-05T05:54:09.798Z,1.60
2018-01-05T05:56:38.660Z,2.33
2018-01-05T05:59:07.568Z,1.25
2018-01-05T06:01:36.448Z,1.50
2018-01-05T06:04:05.326Z,1.62
2018-01-05T06:06:34.181Z,2.03
2018-01-05T06:09:03.157Z,1.60
2018-01-05T06:11:32.025Z,1.67
2018-01-05T06:14:00.884Z,1.33
2018-01-05T06:16:29.748Z,1.58
2018-01-05T06:18:58.607Z,2.37
2018-01-05T06:21:27.621Z,1.50
2018-01-05T06:23:56.463Z,2.05
2018-01-05T06:26:25.334Z,1.45
2018-01-05T06:28:54.208Z,1.40
2018-01-05T06:31:23.136Z,1.87
2018-01-05T06:33:52.104Z,1.52
2018-01-05T06:36:21.106Z,1.95
2018-01-05T06:38:50.119Z,1.30
2018-01-05T06:41:19.147Z,1.60
2018-01-05T06:43:48.424Z,1.50
2018-01-05T06:46:18.442Z,1.87
2018-01-05T06:48:47.299Z,1.30
2018-01-05T06:51:16.190Z,1.37
2018-01-05T06:53:45.051Z,1.50
2018-01-05T06:56:13.936Z,1.33
2018-01-05T06:58:45.520Z,1.40
2018-01-05T07:01:14.395Z,1.30
2018-01-05T07:03:43.253Z,1.37
2018-01-05T07:06:12.301Z,1.30
2018-01-05T07:08:41.234Z,1.10
2018-01-05T07:11:10.237Z,1.75
2018-01-05T07:13:39.164Z,1.60
2018-01-05T07:16:08.103Z,1.33
2018-01-05T07:18:37.041Z,1.08
2018-01-05T07:21:05.991Z,1.55
2018-01-05T07:23:34.948Z,1.20
2018-01-05T07:26:04.014Z,1.20
2018-01-05T07:28:32.887Z,1.17
2018-01-05T07:31:01.833Z,1.35
2018-01-05T07:33:30.771Z,1.08
2018-01-05T07:35:59.637Z,1.10
2018-01-05T07:38:28.498Z,1.60
2018-01-05T07:40:57.364Z,1.35
2018-01-05T07:43:26.228Z,1.02
2018-01-05T07:45:55.084Z,1.20
2018-01-05T07:48:23.948Z,1.20
2018-01-05T07:50:52.816Z,1.15
2018-01-05T07:53:21.671Z,0.80
2018-01-05T07:55:50.543Z,1.35
2018-01-05T07:58:19.408Z,1.08
2018-01-05T08:00:48.255Z,1.08
2018-01-05T08:03:17.178Z,1.02
2018-01-05T08:05:46.044Z,1.05
2018-01-05T08:08:14.899Z,0.90
2018-01-05T08:10:43.768Z,1.20
2018-01-05T08:13:12.643Z,1.00
2018-01-05T08:15:41.507Z,1.23
2018-01-05T08:18:10.387Z,1.00
2018-01-05T08:20:39.234Z,1.02
2018-01-05T08:23:08.100Z,1.20
2018-01-05T08:25:36.995Z,1.00
2018-01-05T08:28:05.977Z,0.90
2018-01-05T08:30:34.837Z,1.00
2018-01-05T08:33:03.695Z,1.10
2018-01-05T08:35:32.738Z,1.30
2018-01-05T08:38:01.641Z,1.00
2018-01-05T08:40:30.615Z,1.40
2018-01-05T08:42:59.502Z,1.20
2018-01-05T08:45:28.451Z,1.00
2018-01-05T08:47:57.428Z,1.48
2018-01-05T08:50:26.320Z,1.02
2018-01-05T08:52:55.232Z,0.90
2018-01-05T08:55:24.228Z,1.05
2018-01-05T08:57:53.401Z,1.20
2018-01-05T09:00:28.112Z,1.00
2018-01-05T09:02:57.113Z,0.77
2018-01-05T09:05:26.628Z,0.70
2018-01-05T09:07:56.276Z,0.90
2018-01-05T09:10:25.148Z,1.30
2018-01-05T09:12:54.028Z,1.00
2018-01-05T09:15:23.798Z,1.00
2018-01-05T09:17:52.672Z,1.02
2018-01-05T09:20:21.536Z,1.00
2018-01-05T09:22:50.395Z,0.80
2018-01-05T09:25:19.268Z,0.90
2018-01-05T09:27:48.197Z,1.00
2018-01-05T09:30:16.999Z,0.70
2018-01-05T09:32:45.880Z,0.88
2018-01-05T09:35:14.743Z,0.80
2018-01-05T09:37:43.596Z,0.80
2018-01-05T09:40:12.460Z,0.82
2018-01-05T09:42:41.377Z,1.10
2018-01-05T09:45:10.262Z,0.90
2018-01-05T09:47:39.123Z,0.98
2018-01-05T09:50:08.008Z,0.80
2018-01-05T09:52:36.913Z,1.35
2018-01-05T09:55:05.858Z,0.80
2018-01-05T09:57:34.792Z,0.98
2018-01-05T10:00:03.767Z,0.90
2018-01-05T10:02:32.737Z,0.80
2018-01-05T10:05:01.930Z,0.80
2018-01-05T10:07:30.841Z,1.00
2018-01-05T10:09:59.692Z,1.02
2018-01-05T10:12:28.564Z,1.25
2018-01-05T10:14:57.452Z,0.93
2018-01-05T10:17:26.324Z,0.88
2018-01-05T10:19:55.199Z,0.90
2018-01-05T10:22:24.051Z,0.70
2018-01-05T10:24:52.926Z,0.70
2018-01-05T10:27:21.782Z,0.60
2018-01-05T10:29:50.657Z,0.85
2018-01-05T10:32:19.519Z,0.90
2018-01-05T10:34:48.400Z,0.80
2018-01-05T10:37:17.255Z,0.80
2018-01-05T10:39:46.119Z,0.88
2018-01-05T10:42:14.996Z,1.00
2018-01-05T10:44:43.935Z,0.73
2018-01-05T10:47:13.044Z,0.98
2018-01-05T10:49:41.923Z,0.80
2018-01-05T10:52:10.779Z,0.70
2018-01-05T10:54:39.643Z,0.80
2018-01-05T10:57:08.521Z,0.90
2018-01-05T10:59:37.380Z,0.90
2018-01-05T11:02:06.245Z,0.80
2018-01-05T11:04:35.114Z,0.80
2018-01-05T11:07:03.988Z,0.70
2018-01-05T11:09:32.942Z,0.70
2018-01-05T11:12:01.806Z,0.80
2018-01-05T11:14:30.680Z,0.95
2018-01-05T11:16:59.540Z,0.80
2018-01-05T11:19:28.402Z,0.90
2018-01-05T11:21:57.276Z,1.00
2018-01-05T11:24:26.162Z,0.70
2018-01-05T11:26:55.024Z,0.80
2018-01-05T11:29:24.006Z,0.80
2018-01-05T11:31:53.036Z,0.80
2018-01-05T11:34:21.947Z,1.17
2018-01-05T11:36:50.897Z,0.80
2018-01-05T11:39:19.919Z,0.80
2018-01-05T11:41:49.340Z,0.95
2018-01-05T11:44:18.313Z,0.82
2018-01-05T11:46:47.192Z,0.70
2018-01-05T11:49:16.064Z,0.82
2018-01-05T11:51:44.916Z,0.70
2018-01-05T11:54:13.784Z,0.60
2018-01-05T11:56:42.663Z,0.60
2018-01-05T11:59:11.547Z,0.60
2018-01-05T12:01:40.455Z,0.60
2018-01-05T12:04:09.316Z,0.80
2018-01-05T12:06:38.183Z,0.85
2018-01-05T12:09:07.048Z,0.70
2018-01-05T12:11:35.919Z,0.70
2018-01-05T12:14:04.800Z,1.00
2018-01-05T12:16:33.655Z,0.60
2018-01-05T12:19:02.524Z,1.10
2018-01-05T12:21:31.392Z,0.70
2018-01-05T12:24:00.249Z,0.98
2018-01-05T12:26:29.120Z,0.80
2018-01-05T12:28:57.980Z,1.12
2018-01-05T12:31:26.857Z,0.85
2018-01-05T12:33:55.724Z,0.80
2018-01-05T12:36:24.596Z,0.90
2018-01-05T12:38:53.457Z,0.85
2018-01-05T12:41:22.323Z,0.93
2018-01-05T12:43:51.280Z,0.90
2018-01-05T12:46:20.172Z,0.70
2018-01-05T12:48:49.060Z,0.70
2018-01-05T12:51:18.051Z,1.00
2018-01-05T12:53:47.038Z,1.10
2018-01-05T12:56:16.174Z,1.30
2018-01-05T12:58:45.628Z,1.67
2018-01-05T13:01:14.651Z,1.70
2018-01-05T13:03:53.632Z,1.70
2018-01-05T13:06:22.504Z,1.80
2018-01-05T13:08:51.462Z,1.90
2018-01-05T13:11:20.352Z,1.85
2018-01-05T13:13:49.207Z,2.15
2018-01-05T13:16:18.077Z,2.05
2018-01-05T13:18:46.948Z,2.05
2018-01-05T13:21:15.817Z,1.98
2018-01-05T13:23:44.775Z,2.40
2018-01-05T13:26:13.636Z,2.47
2018-01-05T13:28:42.504Z,2.45
2018-01-05T13:31:11.464Z,2.67
2018-01-05T13:33:40.414Z,2.40
2018-01-05T13:36:09.375Z,1.98
2018-01-05T13:38:38.316Z,2.42
2018-01-05T13:41:07.257Z,2.17
2018-01-05T13:43:36.302Z,2.67
2018-01-05T13:46:05.424Z,2.60
2018-01-05T13:48:34.367Z,2.15
2018-01-05T13:51:03.289Z,2.00
2018-01-05T13:53:32.208Z,2.30
2018-01-05T13:56:01.173Z,2.50
2018-01-05T13:58:30.064Z,3.08
2018-01-05T14:00:58.943Z,2.45
2018-01-05T14:03:27.808Z,2.30
2018-01-05T14:05:56.688Z,2.80
2018-01-05T14:08:25.624Z,2.62
2018-01-05T14:10:54.495Z,2.95
2018-01-05T14:13:23.376Z,2.58
2018-01-05T14:15:52.251Z,2.70
2018-01-05T14:18:21.184Z,2.70
2018-01-05T14:20:50.073Z,2.58
2018-01-05T14:23:18.952Z,2.40
2018-01-05T14:25:47.812Z,2.47
2018-01-05T14:28:16.698Z,3.00
2018-01-05T14:30:45.635Z,2.08
2018-01-05T14:33:15.411Z,2.15
2018-01-05T14:35:44.279Z,2.40
2018-01-05T14:38:13.152Z,2.78
2018-01-05T14:40:42.041Z,2.60
2018-01-05T14:43:10.927Z,2.37
2018-01-05T14:45:39.952Z,2.25
2018-01-05T14:48:08.968Z,2.90
2018-01-05T14:50:38.135Z,2.40
2018-01-05T14:53:07.211Z,2.08
2018-01-05T14:55:36.243Z,2.20
2018-01-05T14:58:05.181Z,2.17
2018-01-05T15:00:34.848Z,2.28
2018-01-05T15:03:03.731Z,2.35
2018-01-05T15:05:32.589Z,2.10
2018-01-05T15:08:01.543Z,2.30
2018-01-05T15:10:30.407Z,2.15
2018-01-05T15:12:59.289Z,2.25
2018-01-05T15:15:28.219Z,2.40
2018-01-05T15:17:57.085Z,2.20
2018-01-05T15:20:25.993Z,2.42
2018-01-05T15:22:54.856Z,3.37
2018-01-05T15:25:23.771Z,2.50
2018-01-05T15:27:52.658Z,2.08
2018-01-05T15:30:21.547Z,2.80
2018-01-05T15:32:50.417Z,2.25
2018-01-05T15:35:19.327Z,2.10
2018-01-05T15:37:48.196Z,2.08
2018-01-05T15:40:17.067Z,2.95
2018-01-05T15:42:45.991Z,2.50
2018-01-05T15:45:14.864Z,1.90
2018-01-05T15:47:43.741Z,1.92
2018-01-05T15:50:12.676Z,1.70
2018-01-05T15:52:41.683Z,2.42
2018-01-05T15:55:10.591Z,1.95
2018-01-05T15:57:39.447Z,1.90
2018-01-05T16:00:08.385Z,2.92
2018-01-05T16:02:37.255Z,1.95
2018-01-05T16:05:06.136Z,1.90
2018-01-05T16:07:34.993Z,2.20
2018-01-05T16:10:03.927Z,1.60
2018-01-05T16:12:32.834Z,2.10
2018-01-05T16:15:01.797Z,1.95
2018-01-05T16:17:30.752Z,2.10
2018-01-05T16:19:59.741Z,2.08
2018-01-05T16:22:28.618Z,2.00
2018-01-05T16:24:57.522Z,2.33
2018-01-05T16:27:26.463Z,2.10
2018-01-05T16:29:55.501Z,2.47
2018-01-05T16:32:24.428Z,2.30
2018-01-05T16:34:53.296Z,2.10
2018-01-05T16:37:22.173Z,1.70
2018-01-05T16:39:51.091Z,1.85
2018-01-05T16:42:20.081Z,2.03
2018-01-05T16:44:48.964Z,2.53
2018-01-05T16:47:17.842Z,2.08
2018-01-05T16:49:46.726Z,1.70
2018-01-05T16:52:15.605Z,1.70
2018-01-05T16:54:44.480Z,2.90
2018-01-05T16:57:13.352Z,1.92
2018-01-05T16:59:42.225Z,2.08
2018-01-05T17:02:11.212Z,1.80
2018-01-05T17:04:40.108Z,2.50
2018-01-05T17:07:08.962Z,2.65
2018-01-05T17:09:37.830Z,2.22
2018-01-05T17:12:06.706Z,1.83
2018-01-05T17:14:35.587Z,2.12
2018-01-05T17:17:04.444Z,1.85
2018-01-05T17:19:33.327Z,2.10
2018-01-05T17:22:02.189Z,2.45
2018-01-05T17:24:31.113Z,2.00
2018-01-05T17:26:59.978Z,2.12
2018-01-05T17:29:28.878Z,1.95
2018-01-05T17:31:57.784Z,2.05
2018-01-05T17:34:26.659Z,1.95
2018-01-05T17:36:55.531Z,2.17
2018-01-05T17:39:24.404Z,1.90
2018-01-05T17:41:53.342Z,1.70
2018-01-05T17:44:22.192Z,2.10
2018-01-05T17:46:51.056Z,2.05
2018-01-05T17:49:19.955Z,2.30
2018-01-05T17:51:48.852Z,1.95
2018-01-05T17:54:17.756Z,1.80
2018-01-05T17:56:46.694Z,2.40
2018-01-05T17:59:15.687Z,2.25
2018-01-05T18:01:44.783Z,2.20
2018-01-05T18:04:13.725Z,2.10
2018-01-05T18:06:42.725Z,2.22
2018-01-05T18:09:11.784Z,2.10
2018-01-05T18:11:41.317Z,2.08
2018-01-05T18:14:10.168Z,1.85
2018-01-05T18:16:39.041Z,1.90
2018-01-05T18:19:07.906Z,2.05
2018-01-05T18:21:36.806Z,2.65
2018-01-05T18:24:05.710Z,1.92
2018-01-05T18:26:34.564Z,1.87
2018-01-05T18:29:03.428Z,2.45
2018-01-05T18:31:32.362Z,1.80
2018-01-05T18:34:01.262Z,2.10
2018-01-05T18:36:30.139Z,2.10
2018-01-05T18:38:59.024Z,1.92
2018-01-05T18:41:27.936Z,2.45
2018-01-05T18:43:56.826Z,2.37
2018-01-05T18:46:25.688Z,2.00
2018-01-05T18:48:54.570Z,2.03
2018-01-05T18:51:23.486Z,2.35
2018-01-05T18:53:52.381Z,2.08
2018-01-05T18:56:21.251Z,2.25
2018-01-05T18:58:50.142Z,2.30
2018-01-05T19:01:18.998Z,2.15
2018-01-05T19:03:47.888Z,2.20
2018-01-05T19:06:16.752Z,2.20
2018-01-05T19:08:45.728Z,2.25
2018-01-05T19:11:14.576Z,1.77
2018-01-05T19:13:43.467Z,2.50
2018-01-05T19:16:12.319Z,2.58
2018-01-05T19:18:41.202Z,2.25
2018-01-05T19:21:10.070Z,1.90
2018-01-05T19:23:38.976Z,2.92
2018-01-05T19:26:07.919Z,2.17
2018-01-05T19:28:36.855Z,2.33
2018-01-05T19:31:05.823Z,2.00
2018-01-05T19:33:34.767Z,2.62
2018-01-05T19:36:03.841Z,2.17
2018-01-05T19:38:32.830Z,2.10
2018-01-05T19:41:01.872Z,3.03
2018-01-05T19:43:30.930Z,2.25
2018-01-05T19:46:00.517Z,2.42
2018-01-05T19:48:29.545Z,2.00
2018-01-05T19:50:58.464Z,2.28
2018-01-05T19:53:27.349Z,2.08
2018-01-05T19:55:56.207Z,2.47
2018-01-05T19:58:25.075Z,2.05
2018-01-05T20:00:53.961Z,2.42
2018-01-05T20:03:22.819Z,2.25
2018-01-05T20:05:51.693Z,2.17
2018-01-05T20:08:20.570Z,2.10
2018-01-05T20:10:49.437Z,2.47
2018-01-05T20:13:18.309Z,2.10
2018-01-05T20:15:47.171Z,2.22
2018-01-05T20:18:16.050Z,2.30
2018-01-05T20:20:44.944Z,2.30
2018-01-05T20:23:13.811Z,2.30
2018-01-05T20:25:42.700Z,2.50
2018-01-05T20:28:11.587Z,2.25
2018-01-05T20:30:40.448Z,2.80
2018-01-05T20:33:09.327Z,2.37
2018-01-05T20:35:38.193Z,2.17
2018-01-05T20:38:07.069Z,2.50
2018-01-05T20:40:35.952Z,2.30
2018-01-05T20:43:04.841Z,2.33
2018-01-05T20:45:33.716Z,2.67
2018-01-05T20:48:02.584Z,2.85
2018-01-05T20:50:31.470Z,2.65
2018-01-05T20:53:00.340Z,2.00
2018-01-05T20:55:29.222Z,2.20
2018-01-05T20:57:58.206Z,2.00
2018-01-05T21:00:27.068Z,1.95
2018-01-05T21:02:55.999Z,2.05
2018-01-05T21:05:24.868Z,2.40
2018-01-05T21:07:53.749Z,1.98
2018-01-05T21:10:22.628Z,1.95
2018-01-05T21:12:51.498Z,2.47
2018-01-05T21:15:20.373Z,2.70
2018-01-05T21:17:49.240Z,2.55
2018-01-05T21:20:18.120Z,2.20
2018-01-05T21:22:46.988Z,2.60
2018-01-05T21:25:15.858Z,2.08
2018-01-05T21:27:44.727Z,2.50
2018-01-05T21:30:13.667Z,2.30
2018-01-05T21:32:42.542Z,2.28
2018-01-05T21:35:11.408Z,2.50
2018-01-05T21:37:40.276Z,2.40
2018-01-05T21:40:09.156Z,2.20
2018-01-05T21:42:38.125Z,1.95
2018-01-05T21:45:06.987Z,2.90
2018-01-05T21:47:35.903Z,2.50
2018-01-05T21:50:04.802Z,2.30
2018-01-05T21:52:33.656Z,2.60
2018-01-05T21:55:02.609Z,2.87
2018-01-05T21:57:31.719Z,2.50
2018-01-05T22:00:00.617Z,2.67
2018-01-05T22:02:29.572Z,2.78
2018-01-05T22:04:58.565Z,2.78
2018-01-05T22:07:27.495Z,2.70
2018-01-05T22:09:56.496Z,2.90
2018-01-05T22:12:25.438Z,2.03
2018-01-05T22:14:54.411Z,2.30
2018-01-05T22:17:23.363Z,2.05
2018-01-05T22:19:52.352Z,2.58
2018-01-05T22:22:21.267Z,2.50
2018-01-05T22:24:50.240Z,2.70
2018-01-05T22:27:19.197Z,2.35
2018-01-05T22:29:48.156Z,2.42
2018-01-05T22:32:17.047Z,3.10
2018-01-05T22:34:45.935Z,2.70
2018-01-05T22:37:14.836Z,2.45
2018-01-05T22:39:43.701Z,2.30
2018-01-05T22:42:12.580Z,2.10
2018-01-05T22:44:41.444Z,2.47
2018-01-05T22:47:10.324Z,2.53
2018-01-05T22:49:39.198Z,2.45
2018-01-05T22:52:08.049Z,2.60
2018-01-05T22:54:36.921Z,3.22
2018-01-05T22:57:05.790Z,2.40
2018-01-05T22:59:34.647Z,2.53
2018-01-05T23:02:03.519Z,3.12
2018-01-05T23:04:32.403Z,2.67
2018-01-05T23:07:01.296Z,2.90
2018-01-05T23:09:30.164Z,2.33
2018-01-05T23:11:59.049Z,2.60
2018-01-05T23:14:27.920Z,2.45
2018-01-05T23:16:56.790Z,2.75
2018-01-05T23:19:25.659Z,2.45
2018-01-05T23:21:54.516Z,3.08
2018-01-05T23:24:23.387Z,2.25
2018-01-05T23:26:52.280Z,2.40
2018-01-05T23:29:21.134Z,2.50
2018-01-05T23:31:50.017Z,2.10
2018-01-05T23:34:18.883Z,2.60
2018-01-05T23:36:47.770Z,2.65
2018-01-05T23:39:16.699Z,2.65
2018-01-05T23:41:45.580Z,3.08
2018-01-05T23:44:14.447Z,2.35
2018-01-05T23:46:43.317Z,2.62
2018-01-05T23:49:12.288Z,2.67
2018-01-05T23:51:41.207Z,2.80
2018-01-05T23:54:10.105Z,2.72
2018-01-05T23:56:38.996Z,2.58
2018-01-05T23:59:07.924Z,2.45
